Flight Track Log - Related Links

Times and Time Zones

All times are in EDT time to prevent confusion due to time zone crossing. See the SWA471 flight status page for this flight to view local times or setup timezone preferences in your user account.

Time Position Orientation Groundspeed Altitude Reporting Facility
EDT Latitude Longitude Course Direction KTS MPH feet Rate Location/Type
Sat 11:22:02 PM 36.0769 -115.1625 266° West 128 147 3,600  Level Los Angeles Center
Sat 11:23:09 PM 36.0725 -115.2411 266° West 237 273 6,300 2,906 Climbing Los Angeles Center
Sat 11:24:10 PM 36.0028 -115.2881 209° Southwest 295 339 9,800 2,483 Climbing Los Angeles Center
Sat 11:24:36 PM 36.0006 -115.2881 180° South 277 319 9,900 3,724 Climbing Los Angeles Center
Sat 11:25:37 PM 35.8822 -115.2594 169° South 311 358 15,200 4,341 Climbing Los Angeles Center
Sat 11:26:39 PM 35.8403 -115.1506 115° Southeast 354 407 18,800 2,244 Climbing Los Angeles Center
Sat 11:27:40 PM 35.8275 -115.0128 96° East 415 478 19,800 1,805 Climbing Los Angeles Center
Sat 11:28:42 PM 35.8417 -114.8589 83° East 453 521 22,500 2,341 Climbing Los Angeles Center
Sat 11:29:43 PM 35.8556 -114.6997 84° East 468 539 24,600 1,918 Climbing Los Angeles Center
Sat 11:30:44 PM 35.8703 -114.5317 84° East 489 563 26,400 1,854 Climbing Los Angeles Center
Sat 11:31:46 PM 35.8844 -114.3556 84° East 511 588 28,400 2,293 Climbing Los Angeles Center
Sat 11:32:47 PM 35.9006 -114.1800 83° East 517 595 31,100 2,607 Climbing Los Angeles Center
Sat 11:33:48 PM 35.9175 -113.9736 84° East 507 583 33,700 1,902 Climbing Los Angeles Center
Sat 11:34:50 PM 35.9039 -113.7989 95° East 515 593 35,000 634 Climbing Los Angeles Center
Sat 11:35:51 PM 35.8658 -113.6228 105° East 529 609 35,000  Level Los Angeles Center
Sat 11:36:52 PM 35.8347 -113.4675 104° East 525 604 35,000  Level Los Angeles Center
Sat 11:37:54 PM 35.7989 -113.2953 104° East 520 598 35,000  Level Los Angeles Center
Sat 11:38:55 PM 35.7619 -113.1222 105° East 521 600 35,000  Level Los Angeles Center
Sat 11:39:56 PM 35.7189 -112.9150 104° East 519 597 35,000  Level Los Angeles Center
Sat 11:40:58 PM 35.6822 -112.7422 105° East 519 597 35,000  Level Los Angeles Center
Sat 11:41:59 PM 35.6447 -112.5694 105° East 520 598 35,000  Level Los Angeles Center
Sat 11:43:00 PM 35.6075 -112.3967 105° East 521 600 35,000  Level Los Angeles Center
Sat 11:43:33 PM 35.5894 -112.3297 108° East 522 601 35,000  Level Albuquerque Center
Sat 11:44:33 PM 35.5186 -112.1292 113° Southeast 533 613 35,000  Level Albuquerque Center
Sat 11:45:34 PM 35.4647 -111.9608 111° Southeast 533 613 35,000 639 Level Albuquerque Center
Sat 11:46:35 PM 35.4200 -111.7914 108° East 527 606 36,300 1,636 Climbing Albuquerque Center
Sat 11:47:35 PM 35.3722 -111.6258 109° East 521 600 38,300 1,736 Climbing Albuquerque Center
Sat 11:48:36 PM 35.3247 -111.4636 110° East 512 589 39,800 984 Climbing Albuquerque Center
Sat 11:49:37 PM 35.2742 -111.2881 109° East 518 596 40,300 595 Climbing Albuquerque Center
Sat 11:50:37 PM 35.2258 -111.1233 110° East 517 595 41,000 347 Climbing Albuquerque Center
Sat 11:51:38 PM 35.1847 -110.9836 110° East 487 560 41,000 -198 Level Albuquerque Center
Sat 11:52:38 PM 35.1336 -110.8106 110° East 483 556 40,600 -992 Descending Albuquerque Center
Sat 11:53:39 PM 35.0911 -110.6644 110° East 481 554 39,000 -793 Descending Albuquerque Center
Sat 11:54:39 PM 35.0475 -110.5119 109° East 489 563 39,000  Level Albuquerque Center
Sat 11:55:40 PM 34.9925 -110.3308 110° East 502 578 39,000  Level Albuquerque Center
Sat 11:56:41 PM 34.9458 -110.1744 110° East 509 586 39,000  Level Albuquerque Center
Sat 11:57:41 PM 34.8964 -110.0122 110° East 523 602 39,000  Level Albuquerque Center
Sat 11:58:42 PM 34.8392 -109.8269 111° Southeast 525 604 39,000  Level Albuquerque Center
Sat 11:59:42 PM 34.7903 -109.6700 111° Southeast 522 601 39,000  Level Albuquerque Center
Sun 12:00:43 AM 34.7431 -109.5133 110° East 519 597 39,000  Level Albuquerque Center
Sun 12:01:43 AM 34.6872 -109.3356 111° Southeast 510 587 39,000  Level Albuquerque Center
Sun 12:02:44 AM 34.6392 -109.1819 111° Southeast 508 585 39,000  Level Albuquerque Center
Sun 12:03:44 AM 34.5917 -109.0269 110° East 512 589 39,000  Level Albuquerque Center
Sun 12:04:45 AM 34.5336 -108.8481 111° Southeast 512 589 39,000  Level Albuquerque Center
Sun 12:05:45 AM 34.4858 -108.6969 111° Southeast 508 585 39,000  Level Albuquerque Center
Sun 12:06:46 AM 34.4372 -108.5456 111° Southeast 505 581 39,000  Level Albuquerque Center
Sun 12:07:46 AM 34.3894 -108.3939 111° Southeast 507 583 39,000  Level Albuquerque Center
Sun 12:08:47 AM 34.3392 -108.2367 111° Southeast 504 580 39,000  Level Albuquerque Center
Sun 12:09:47 AM 34.2828 -108.0711 112° Southeast 510 587 39,000  Level Albuquerque Center
Sun 12:10:48 AM 34.2314 -107.9142 112° Southeast 507 583 39,000  Level Albuquerque Center
Sun 12:11:48 AM 34.1811 -107.7600 111° Southeast 499 574 39,000  Level Albuquerque Center
Sun 12:12:49 AM 34.1294 -107.6039 112° Southeast 499 574 39,000  Level Albuquerque Center
Sun 12:13:49 AM 34.0778 -107.4464 112° Southeast 502 578 39,000  Level Albuquerque Center
Sun 12:14:50 AM 34.0264 -107.2908 112° Southeast 501 577 39,000 -50 Level Albuquerque Center
Sun 12:15:50 AM 33.9756 -107.1381 112° Southeast 496 571 38,900 -1,289 Descending Albuquerque Center
Sun 12:16:51 AM 33.9253 -106.9892 112° Southeast 487 560 36,400 -1,983 Descending Albuquerque Center
Sun 12:17:51 AM 33.8722 -106.8308 112° Southeast 496 571 34,900 -694 Descending Albuquerque Center
Sun 12:18:52 AM 33.8183 -106.6758 113° Southeast 502 578 35,000 50 Climbing Albuquerque Center
Sun 12:19:52 AM 33.7653 -106.5203 112° Southeast 502 578 35,000  Level Albuquerque Center
Sun 12:20:53 AM 33.7117 -106.3628 112° Southeast 504 580 35,000  Level Albuquerque Center
Sun 12:21:53 AM 33.6581 -106.2047 112° Southeast 508 585 35,000  Level Albuquerque Center
Sun 12:22:54 AM 33.6039 -106.0506 113° Southeast 506 582 35,000  Level Albuquerque Center
Sun 12:23:54 AM 33.5511 -105.8961 112° Southeast 501 577 35,000  Level Albuquerque Center
Sun 12:24:55 AM 33.4872 -105.7133 113° Southeast 495 570 35,000  Level Albuquerque Center
Sun 12:25:55 AM 33.4347 -105.5650 113° Southeast 501 577 35,000  Level Albuquerque Center
Sun 12:26:56 AM 33.3756 -105.4019 113° Southeast 499 574 35,000  Level Albuquerque Center
Sun 12:27:56 AM 33.3236 -105.2486 112° Southeast 499 574 35,000  Level Albuquerque Center
Sun 12:28:56 AM 33.2689 -105.0958 113° Southeast 501 577 35,000  Level Albuquerque Center
Sun 12:29:57 AM 33.2139 -104.9428 113° Southeast 502 578 35,000  Level Albuquerque Center
Sun 12:30:57 AM 33.1586 -104.7914 114° Southeast 500 575 35,000  Level Albuquerque Center
Sun 12:31:58 AM 33.1044 -104.6386 113° Southeast 504 580 35,000  Level Albuquerque Center
Sun 12:32:58 AM 33.0492 -104.4847 113° Southeast 508 585 35,000  Level Albuquerque Center
Sun 12:33:59 AM 32.9931 -104.3300 113° Southeast 510 587 35,000  Level Albuquerque Center
Sun 12:34:59 AM 32.9339 -104.1656 113° Southeast 507 583 35,000  Level Albuquerque Center
Sun 12:35:59 AM 32.8778 -104.0133 114° Southeast 503 579 35,000  Level Albuquerque Center
Sun 12:37:00 AM 32.8222 -103.8619 114° Southeast 501 577 35,000  Level Albuquerque Center
Sun 12:38:00 AM 32.7706 -103.7197 113° Southeast 500 575 35,000  Level Albuquerque Center
Sun 12:39:00 AM 32.7153 -103.5719 114° Southeast 494 568 35,000  Level Albuquerque Center
Sun 12:40:01 AM 32.6583 -103.4225 114° Southeast 498 573 35,000  Level Albuquerque Center
Sun 12:40:56 AM 32.6097 -103.2972 115° Southeast 493 567 35,000  Level Fort Worth Center
Sun 12:41:56 AM 32.5486 -103.1283 113° Southeast 498 573 35,000  Level Fort Worth Center
Sun 12:42:56 AM 32.4886 -102.9767 115° Southeast 507 583 35,000  Level Fort Worth Center
Sun 12:43:56 AM 32.4306 -102.8278 115° Southeast 507 583 35,000  Level Fort Worth Center
Sun 12:44:56 AM 32.3722 -102.6794 115° Southeast 502 578 35,000  Level Fort Worth Center
Sun 12:45:56 AM 32.3133 -102.5333 115° Southeast 497 572 35,000  Level Fort Worth Center
Sun 12:46:56 AM 32.2589 -102.3878 114° Southeast 497 572 35,000  Level Fort Worth Center
Sun 12:47:56 AM 32.2039 -102.2450 114° Southeast 492 566 35,000  Level Fort Worth Center
Sun 12:48:56 AM 32.1489 -102.0997 114° Southeast 486 559 35,000  Level Fort Worth Center
Sun 12:49:56 AM 32.1053 -101.9747 112° Southeast 478 550 35,000  Level Fort Worth Center
Sun 12:50:56 AM 32.0497 -101.8397 116° Southeast 470 541 35,000  Level Fort Worth Center
Sun 12:51:56 AM 31.9964 -101.6950 113° Southeast 470 541 35,000  Level Fort Worth Center
Sun 12:52:56 AM 31.9422 -101.5603 115° Southeast 470 541 35,000  Level Fort Worth Center
Sun 12:53:56 AM 31.8864 -101.4183 115° Southeast 470 541 35,000  Level Fort Worth Center
Sun 12:54:56 AM 31.8281 -101.2814 117° Southeast 470 541 35,000  Level Fort Worth Center
Sun 12:55:56 AM 31.7739 -101.1422 115° Southeast 470 541 35,000  Level Fort Worth Center
Sun 12:56:56 AM 31.7153 -101.0031 116° Southeast 470 541 35,000  Level Fort Worth Center
Sun 12:57:56 AM 31.6628 -100.8619 114° Southeast 470 541 35,000  Level Fort Worth Center
Sun 12:59:46 AM 31.5528 -100.6006 116° Southeast 476 548 35,000  Level Houston Center
Sun 01:00:47 AM 31.4947 -100.4600 116° Southeast 478 550 35,000  Level Houston Center
Sun 01:01:47 AM 31.4389 -100.3200 115° Southeast 475 547 35,000  Level Houston Center
Sun 01:02:47 AM 31.3806 -100.1778 116° Southeast 482 555 35,000  Level Houston Center
Sun 01:03:47 AM 31.3214 -100.0369 116° Southeast 482 555 35,000  Level Houston Center
Sun 01:04:47 AM 31.2622 -99.8958 116° Southeast 481 554 35,000  Level Houston Center
Sun 01:05:48 AM 31.1972 -99.7592 119° Southeast 479 551 35,000  Level Houston Center
Sun 01:06:48 AM 31.1339 -99.6236 119° Southeast 477 549 35,000  Level Houston Center
Sun 01:07:48 AM 31.0692 -99.4867 119° Southeast 480 552 35,000  Level Houston Center
Sun 01:08:48 AM 31.0056 -99.3489 118° Southeast 481 554 35,000 -500 Level Houston Center
Sun 01:09:48 AM 30.9394 -99.2122 119° Southeast 482 555 34,000 -2,281 Descending Houston Center
Sun 01:10:49 AM 30.8744 -99.0742 119° Southeast 477 549 30,400 -3,521 Descending Houston Center
Sun 01:11:49 AM 30.8081 -98.9375 119° Southeast 480 552 26,900 -3,300 Descending Houston Center
Sun 01:12:49 AM 30.7453 -98.8053 119° Southeast 470 541 23,800 -3,000 Descending Houston Center
Sun 01:13:49 AM 30.6850 -98.6797 119° Southeast 450 518 20,900 -2,900 Descending Houston Center
Sun 01:14:49 AM 30.6281 -98.5597 119° Southeast 429 494 18,000 -2,651 Descending Houston Center
Sun 01:15:58 AM 30.5717 -98.4458 120° Southeast 411 473 15,200 -2,512 Descending Houston Center
Sun 01:16:58 AM 30.5192 -98.3356 119° Southeast 394 453 12,600 -1,900 Descending Houston Center
Sun 01:17:58 AM 30.4686 -98.2306 119° Southeast 378 435 11,400 -992 Descending Houston Center
Sun 01:18:59 AM 30.4272 -98.1433 119° Southeast 323 372 10,600 -1,200 Descending Houston Center
Sun 01:19:58 AM 30.3856 -98.0606 120° Southeast 301 346 9,000 -1,600 Descending Houston Center
Sun 01:20:59 AM 30.3581 -97.9742 110° East 290 334 7,400 -1,636 Descending Houston Center
Sun 01:21:59 AM 30.3267 -97.8794 111° Southeast 281 323 5,700 -1,550 Descending Houston Center
Sun 01:22:59 AM 30.3031 -97.8061 110° East 276 318 4,300 -950 Descending Houston Center
Sun 01:23:59 AM 30.2839 -97.7417 109° East 220 253 3,800 -950 Descending Houston Center
Sun 01:24:59 AM 30.2797 -97.6958 96° East 156 180 2,400 -1,240 Descending Houston Center
Sun 01:26:00 AM 30.2494 -97.6811 157° South 137 158 1,300 -645 Descending Houston Center
Sun 01:27:00 AM 30.2167 -97.6769 174° South 134 154 1,100 -200 Descending Houston Center
Sun 01:28:00 AM 30.1945 -97.6699 128° Southeast  Level Estimated
Sun 01:35:00 AM 30.1945 -97.6699 128° Southeast  Level Estimated

Login

Don't have an account? Register now (free) for customized features, flight alerts, and more!